Time;durP1;ratioP1;P1;durP2;ratioP2;P2;SDS_P1;SDS_P2;PMS_P1;PMS_P2;Temp;Humidity;BMP_temperature;BMP_pressure;BME280_temperature;BME280_humidity;BME280_pressure;Samples;Min_cycle;Max_cycle;Signal;HPM_P1;HPM_P2
2021/11/07 00:04:55;;;;;;;20.08;14.32;;;;;;;;;;4899948;29;20029;-91
2021/11/07 00:07:26;;;;;;;20.83;14.75;;;;;;;;;;4884106;29;20169;-91
2021/11/07 00:10:04;;;;;;;20.83;15.77;;;;;;;;;;4884692;29;20483;-91
2021/11/07 00:12:37;;;;;;;19.52;13.98;;;;;;;;;;4884051;29;20029;-91
2021/11/07 00:15:03;;;;;;;20.98;15.27;;;;;;;;;;4899748;29;20036;-92
2021/11/07 00:17:31;;;;;;;17.90;13.82;;;;;;;;;;4885329;29;20040;-90
2021/11/07 00:28:05;;;;;;;19.35;13.65;;;;;;;;;;4899489;29;20028;-91
2021/11/07 00:33:45;;;;;;;18.77;14.70;;;;;;;;;;4906370;29;20024;-90
2021/11/07 06:27:10;;;;;;;49.92;30.42;;;;;;;;;;4971091;28;20070;-89
2021/11/07 06:29:38;;;;;;;49.58;32.58;;;;;;;;;;4959234;28;20506;-88
2021/11/07 06:32:05;;;;;;;43.05;26.13;;;;;;;;;;4960084;28;20030;-88
2021/11/07 06:34:31;;;;;;;42.40;26.55;;;;;;;;;;4960708;28;20030;-89
2021/11/07 06:36:57;;;;;;;40.92;26.08;;;;;;;;;;4977673;28;20034;-89
2021/11/07 06:39:24;;;;;;;39.97;25.05;;;;;;;;;;4977759;28;20105;-88
2021/11/07 06:41:50;;;;;;;41.17;24.25;;;;;;;;;;4957456;28;20114;-88
2021/11/07 06:44:16;;;;;;;43.60;25.48;;;;;;;;;;4977584;28;20019;-88
2021/11/07 06:46:42;;;;;;;40.78;26.35;;;;;;;;;;4977341;28;20030;-88
2021/11/07 06:49:10;;;;;;;36.80;22.63;;;;;;;;;;4960687;28;20022;-89
2021/11/07 06:51:38;;;;;;;29.42;19.92;;;;;;;;;;4960177;28;20027;-88
2021/11/07 06:54:04;;;;;;;29.95;17.67;;;;;;;;;;4956190;29;20038;-88
2021/11/07 06:56:31;;;;;;;29.00;17.83;;;;;;;;;;4958102;29;20401;-89
2021/11/07 06:58:57;;;;;;;24.73;17.48;;;;;;;;;;4940827;29;20038;-89
2021/11/07 07:01:24;;;;;;;26.60;18.65;;;;;;;;;;4947131;28;20089;-89
2021/11/07 07:03:50;;;;;;;25.17;17.25;;;;;;;;;;4957150;29;20081;-89
2021/11/07 07:06:17;;;;;;;26.38;17.85;;;;;;;;;;4958451;29;20030;-89
2021/11/07 07:08:47;;;;;;;22.08;16.77;;;;;;;;;;4941352;28;20024;-87
2021/11/07 07:11:20;;;;;;;23.70;17.38;;;;;;;;;;4941195;29;20019;-87
2021/11/07 07:14:08;;;;;;;25.35;17.33;;;;;;;;;;4955520;28;20035;-88
2021/11/07 07:35:10;;;;;;;27.60;20.13;;;;;;;;;;4996820;28;20034;-88
2021/11/07 07:37:36;;;;;;;31.40;19.33;;;;;;;;;;4979192;28;20026;-88
2021/11/07 07:40:02;;;;;;;27.45;18.92;;;;;;;;;;4979280;28;20400;-88
2021/11/07 07:42:30;;;;;;;29.35;20.15;;;;;;;;;;4978510;28;20113;-88
2021/11/07 07:44:56;;;;;;;27.17;20.17;;;;;;;;;;4978388;28;20030;-88
2021/11/07 07:47:22;;;;;;;27.52;18.88;;;;;;;;;;4979358;28;20029;-88
2021/11/07 07:49:50;;;;;;;27.98;19.83;;;;;;;;;;4978475;28;20026;-88
2021/11/07 07:52:21;;;;;;;27.60;18.73;;;;;;;;;;4996036;28;20087;-88
2021/11/07 07:54:47;;;;;;;26.98;19.25;;;;;;;;;;4979198;28;20030;-88
2021/11/07 07:57:13;;;;;;;27.25;18.73;;;;;;;;;;4978408;28;20053;-88
2021/11/07 07:59:39;;;;;;;28.25;18.73;;;;;;;;;;4978614;28;20116;-88
2021/11/07 08:02:05;;;;;;;26.13;18.95;;;;;;;;;;4979031;28;20089;-89
2021/11/07 08:04:32;;;;;;;32.72;25.65;;;;;;;;;;4979098;28;20053;-88
2021/11/07 08:06:59;;;;;;;26.92;20.38;;;;;;;;;;4973456;28;20031;-88
2021/11/07 08:09:25;;;;;;;26.88;20.27;;;;;;;;;;4960095;28;20035;-89
2021/11/07 08:11:51;;;;;;;26.08;19.08;;;;;;;;;;4959967;28;20121;-89
2021/11/07 08:14:17;;;;;;;24.15;17.55;;;;;;;;;;4959700;28;20026;-89
2021/11/07 08:16:43;;;;;;;23.33;17.05;;;;;;;;;;4960370;28;20031;-89
2021/11/07 08:19:09;;;;;;;23.65;16.83;;;;;;;;;;4977504;28;20114;-89
2021/11/07 08:21:41;;;;;;;22.33;15.55;;;;;;;;;;4977131;28;20033;-89
2021/11/07 08:24:07;;;;;;;22.80;16.40;;;;;;;;;;4960402;28;20033;-91
2021/11/07 08:26:35;;;;;;;23.73;17.13;;;;;;;;;;4978773;28;20419;-91
2021/11/07 08:29:02;;;;;;;22.38;15.35;;;;;;;;;;4962569;28;20044;-91
2021/11/07 08:31:29;;;;;;;23.45;16.13;;;;;;;;;;4966040;28;20026;-90
2021/11/07 08:33:56;;;;;;;21.30;15.55;;;;;;;;;;4995794;28;20018;-91
2021/11/07 08:36:26;;;;;;;21.10;14.45;;;;;;;;;;4967702;28;20050;-90
2021/11/07 08:38:58;;;;;;;21.60;14.10;;;;;;;;;;4976471;28;20045;-90
2021/11/07 08:41:26;;;;;;;21.80;15.30;;;;;;;;;;4972280;28;20023;-91
2021/11/07 09:00:27;;;;;;;22.02;14.52;;;;;;;;;;4956945;28;20054;-90
2021/11/07 09:03:15;;;;;;;22.55;15.25;;;;;;;;;;4977483;28;20447;-90
2021/11/07 09:08:50;;;;;;;19.05;12.82;;;;;;;;;;4947259;29;20086;-90
2021/11/07 09:11:18;;;;;;;20.23;13.82;;;;;;;;;;4949886;29;20019;-90
2021/11/07 09:13:45;;;;;;;22.08;14.05;;;;;;;;;;4959258;28;20030;-91
2021/11/07 09:16:24;;;;;;;19.92;13.75;;;;;;;;;;4973051;28;20026;-90
2021/11/07 09:18:57;;;;;;;21.45;13.98;;;;;;;;;;5010098;28;20027;-90
2021/11/07 09:21:27;;;;;;;;;;;;;;;;;;4988263;28;20089;-89
2021/11/07 09:24:00;;;;;;;17.17;12.32;;;;;;;;;;4997741;28;19921;-90
2021/11/07 09:29:00;;;;;;;19.83;13.00;;;;;;;;;;4996004;28;20089;-91
2021/11/07 09:31:35;;;;;;;19.63;13.45;;;;;;;;;;4978704;28;20031;-90
2021/11/07 09:36:37;;;;;;;17.67;11.55;;;;;;;;;;4998146;28;20384;-91
2021/11/07 09:39:17;;;;;;;18.58;13.25;;;;;;;;;;4972029;28;20393;-91
2021/11/07 09:44:14;;;;;;;17.27;11.23;;;;;;;;;;4997252;28;20062;-90
2021/11/07 09:46:44;;;;;;;15.25;10.50;;;;;;;;;;4980355;28;20488;-91
2021/11/07 09:51:41;;;;;;;14.95;9.95;;;;;;;;;;4989474;28;20138;-92
2021/11/07 09:54:10;;;;;;;15.45;11.10;;;;;;;;;;4979603;28;20507;-90
2021/11/07 09:56:36;;;;;;;15.27;9.82;;;;;;;;;;4982558;28;20026;-90
2021/11/07 09:59:02;;;;;;;13.73;8.25;;;;;;;;;;4999008;28;20112;-90
2021/11/07 10:01:31;;;;;;;12.55;8.50;;;;;;;;;;4978663;28;20453;-91
2021/11/07 10:03:59;;;;;;;10.63;6.85;;;;;;;;;;4994768;28;20506;-91
2021/11/07 10:06:41;;;;;;;14.68;9.23;;;;;;;;;;4978284;28;20056;-90
2021/11/07 10:09:07;;;;;;;11.73;8.70;;;;;;;;;;4979826;28;20542;-91
2021/11/07 10:11:41;;;;;;;12.43;8.65;;;;;;;;;;4979088;28;20026;-90
2021/11/07 10:14:17;;;;;;;10.45;6.68;;;;;;;;;;4978609;28;20026;-89
2021/11/07 10:16:50;;;;;;;9.10;6.55;;;;;;;;;;4979157;28;20030;-89
2021/11/07 10:19:27;;;;;;;11.18;7.47;;;;;;;;;;4977561;28;20023;-89
2021/11/07 10:21:54;;;;;;;10.30;6.75;;;;;;;;;;4975084;28;20377;-89
2021/11/07 10:24:52;;;;;;;10.05;7.18;;;;;;;;;;4973736;28;20058;-89
2021/11/07 10:27:53;;;;;;;9.38;6.00;;;;;;;;;;4957394;28;20404;-92
2021/11/07 10:30:53;;;;;;;9.00;5.97;;;;;;;;;;4956657;28;20105;-87
2021/11/07 10:46:52;;;;;;;5.45;3.00;;;;;;;;;;4836232;29;20034;-90
2021/11/07 10:52:23;;;;;;;5.25;3.00;;;;;;;;;;4838034;29;20532;-91
2021/11/07 10:54:49;;;;;;;5.82;3.30;;;;;;;;;;4840524;29;20528;-90
2021/11/07 10:57:15;;;;;;;5.28;3.15;;;;;;;;;;4841201;29;20512;-90
2021/11/07 10:59:42;;;;;;;5.20;3.22;;;;;;;;;;4844396;29;20159;-90
2021/11/07 11:02:27;;;;;;;5.00;2.88;;;;;;;;;;4825375;29;20407;-90
2021/11/07 11:05:06;;;;;;;4.78;2.92;;;;;;;;;;4839987;29;20026;-92
2021/11/07 11:07:33;;;;;;;5.03;2.80;;;;;;;;;;4839716;29;20041;-91
2021/11/07 11:10:13;;;;;;;4.93;2.60;;;;;;;;;;4839006;29;20026;-91
2021/11/07 11:12:58;;;;;;;5.30;2.90;;;;;;;;;;4845593;29;20350;-92
2021/11/07 11:15:33;;;;;;;4.90;2.80;;;;;;;;;;4898119;29;20043;-90
2021/11/07 11:18:12;;;;;;;5.38;2.80;;;;;;;;;;4919396;29;20024;-92
2021/11/07 11:21:07;;;;;;;5.68;2.90;;;;;;;;;;4957052;28;20042;-91
2021/11/07 11:23:44;;;;;;;4.65;2.70;;;;;;;;;;4979283;28;20030;-91
2021/11/07 11:27:03;;;;;;;6.05;2.72;;;;;;;;;;4979811;28;20034;-91
2021/11/07 11:32:07;;;;;;;4.38;2.33;;;;;;;;;;4999820;28;20546;-91
2021/11/07 11:34:40;;;;;;;4.50;2.60;;;;;;;;;;4983135;28;20102;-91
2021/11/07 11:37:16;;;;;;;4.07;2.28;;;;;;;;;;4981930;28;20023;-91
2021/11/07 11:39:55;;;;;;;4.82;2.60;;;;;;;;;;4978877;28;20027;-90
2021/11/07 11:42:34;;;;;;;4.57;2.40;;;;;;;;;;4968930;28;20045;-91
2021/11/07 11:45:00;;;;;;;5.50;2.55;;;;;;;;;;4976515;28;20061;-91
2021/11/07 11:47:38;;;;;;;6.18;2.50;;;;;;;;;;4993970;28;20023;-91
2021/11/07 12:03:29;;;;;;;4.97;2.28;;;;;;;;;;4996256;28;20046;-90
2021/11/07 12:06:03;;;;;;;4.72;2.40;;;;;;;;;;4978682;28;20510;-90
2021/11/07 12:11:20;;;;;;;4.40;2.33;;;;;;;;;;4992640;28;20086;-92
2021/11/07 12:13:54;;;;;;;5.28;2.47;;;;;;;;;;4974927;28;20084;-90
2021/11/07 12:16:43;;;;;;;4.20;2.10;;;;;;;;;;4978816;28;20026;-90
2021/11/07 12:19:10;;;;;;;4.38;2.10;;;;;;;;;;4970540;28;20053;-91
2021/11/07 12:21:50;;;;;;;5.07;2.38;;;;;;;;;;4978367;28;20037;-91
2021/11/07 12:24:17;;;;;;;5.05;2.40;;;;;;;;;;4978267;28;20116;-89
2021/11/07 12:26:43;;;;;;;4.40;2.33;;;;;;;;;;4978426;28;20027;-91
2021/11/07 12:29:09;;;;;;;4.20;2.33;;;;;;;;;;4977583;28;20058;-91
2021/11/07 12:31:35;;;;;;;4.03;2.00;;;;;;;;;;4978820;28;20046;-92
2021/11/07 12:34:21;;;;;;;4.32;2.25;;;;;;;;;;4978673;28;20095;-92
2021/11/07 12:42:19;;;;;;;4.20;1.83;;;;;;;;;;4996487;28;20081;-92
2021/11/07 12:44:49;;;;;;;3.92;2.00;;;;;;;;;;4996524;28;20057;-87
2021/11/07 12:47:17;;;;;;;4.10;1.67;;;;;;;;;;4978130;28;20023;-87
2021/11/07 12:49:54;;;;;;;4.22;1.70;;;;;;;;;;4977693;28;20022;-88
2021/11/07 12:52:20;;;;;;;3.70;1.90;;;;;;;;;;4978060;28;20041;-87
2021/11/07 12:54:48;;;;;;;3.40;1.67;;;;;;;;;;4978129;28;20029;-86
2021/11/07 12:57:15;;;;;;;3.75;1.70;;;;;;;;;;4977719;28;20094;-86
2021/11/07 12:59:46;;;;;;;5.45;2.00;;;;;;;;;;4978142;28;20054;-86
2021/11/07 13:02:31;;;;;;;3.63;1.52;;;;;;;;;;4995826;28;20026;-86
2021/11/07 13:04:58;;;;;;;5.15;3.00;;;;;;;;;;4978248;28;20019;-87
2021/11/07 13:07:28;;;;;;;3.47;1.80;;;;;;;;;;4977633;28;20019;-87
2021/11/07 13:09:59;;;;;;;5.15;2.35;;;;;;;;;;4977536;28;20048;-86
2021/11/07 13:12:37;;;;;;;4.75;2.17;;;;;;;;;;4971542;28;20046;-87
2021/11/07 13:15:18;;;;;;;4.35;1.80;;;;;;;;;;4978398;28;20034;-87
2021/11/07 13:28:36;;;;;;;4.43;2.00;;;;;;;;;;4995055;28;20056;-87
2021/11/07 13:31:19;;;;;;;3.20;1.50;;;;;;;;;;4978253;28;20361;-86
2021/11/07 13:33:46;;;;;;;4.68;2.00;;;;;;;;;;4977412;28;20365;-86
2021/11/07 13:36:16;;;;;;;3.80;1.50;;;;;;;;;;4977178;28;20041;-86
2021/11/07 13:38:45;;;;;;;4.30;1.70;;;;;;;;;;4976802;28;20113;-87
2021/11/07 13:41:16;;;;;;;5.32;2.15;;;;;;;;;;4976538;28;20080;-86
2021/11/07 13:43:51;;;;;;;4.35;1.83;;;;;;;;;;4994544;28;20041;-87
2021/11/07 13:46:18;;;;;;;4.93;2.38;;;;;;;;;;4976725;28;20033;-87
2021/11/07 13:48:44;;;;;;;4.80;2.63;;;;;;;;;;4977200;28;20033;-87
2021/11/07 13:51:10;;;;;;;4.40;2.10;;;;;;;;;;4976971;28;20023;-86
2021/11/07 13:53:42;;;;;;;4.45;2.03;;;;;;;;;;4977035;28;20451;-86
2021/11/07 13:56:13;;;;;;;4.80;2.10;;;;;;;;;;4976729;28;20093;-86
2021/11/07 13:58:41;;;;;;;3.92;1.75;;;;;;;;;;4977125;28;20026;-87
2021/11/07 14:01:14;;;;;;;4.60;1.80;;;;;;;;;;4976869;28;20104;-87
2021/11/07 14:03:44;;;;;;;4.22;1.90;;;;;;;;;;4957499;28;20069;-87
2021/11/07 14:06:18;;;;;;;4.40;1.48;;;;;;;;;;4957501;28;20038;-87
2021/11/07 14:08:48;;;;;;;4.00;1.58;;;;;;;;;;4956943;28;20102;-87
2021/11/07 14:11:16;;;;;;;4.78;2.00;;;;;;;;;;4958179;28;20393;-88
2021/11/07 14:13:45;;;;;;;3.38;1.17;;;;;;;;;;4958177;28;20066;-87
2021/11/07 14:16:12;;;;;;;3.55;1.60;;;;;;;;;;4957596;28;20492;-89
2021/11/07 14:18:42;;;;;;;4.57;1.90;;;;;;;;;;4957860;28;20033;-86
2021/11/07 14:21:08;;;;;;;3.72;1.80;;;;;;;;;;4958255;28;20054;-86
2021/11/07 14:23:42;;;;;;;3.95;1.65;;;;;;;;;;4957588;28;20034;-86
2021/11/07 14:26:25;;;;;;;4.10;1.55;;;;;;;;;;4972237;28;20023;-86
2021/11/07 14:34:35;;;;;;;4.65;1.40;;;;;;;;;;4994387;28;20038;-86
2021/11/07 14:42:22;;;;;;;3.70;1.50;;;;;;;;;;4994508;28;20030;-87
2021/11/07 14:44:58;;;;;;;4.07;1.48;;;;;;;;;;4976549;28;20501;-85
2021/11/07 14:50:22;;;;;;;4.20;1.20;;;;;;;;;;4995203;28;20026;-87
2021/11/07 14:55:23;;;;;;;3.30;1.30;;;;;;;;;;4999505;28;20423;-86
2021/11/07 14:58:18;;;;;;;2.83;1.20;;;;;;;;;;4981101;28;20065;-89
2021/11/07 15:03:20;;;;;;;4.43;1.75;;;;;;;;;;4998039;28;20391;-88
2021/11/07 15:06:03;;;;;;;3.95;1.65;;;;;;;;;;4980659;28;20038;-89
2021/11/07 15:08:34;;;;;;;3.33;1.33;;;;;;;;;;4980247;28;20030;-89
2021/11/07 15:11:30;;;;;;;3.33;1.33;;;;;;;;;;4980789;28;20022;-89
2021/11/07 15:14:09;;;;;;;3.38;1.40;;;;;;;;;;4980749;28;20026;-89
2021/11/07 15:17:22;;;;;;;4.25;1.80;;;;;;;;;;4980160;28;20030;-89
2021/11/07 15:19:29;;;;;;;3.90;1.55;;;;;;;;;;4985870;28;20044;-89
2021/11/07 15:22:02;;;;;;;4.35;1.60;;;;;;;;;;4981380;28;20114;-89
2021/11/07 15:24:34;;;;;;;;;;;;;;;;;;4981673;28;20507;-89
2021/11/07 15:27:01;;;;;;;4.50;1.80;;;;;;;;;;4979554;28;19964;-89
2021/11/07 15:29:32;;;;;;;3.80;1.70;;;;;;;;;;4981182;28;20041;-89
2021/11/07 15:32:03;;;;;;;4.18;1.80;;;;;;;;;;4965232;28;20027;-89
2021/11/07 15:34:32;;;;;;;3.63;1.65;;;;;;;;;;4980809;28;20030;-89
2021/11/07 15:36:58;;;;;;;3.78;2.20;;;;;;;;;;4979378;28;20025;-89
2021/11/07 15:39:27;;;;;;;5.32;2.65;;;;;;;;;;4978899;28;20117;-90
2021/11/07 15:42:05;;;;;;;4.35;2.55;;;;;;;;;;4980217;28;20029;-90
2021/11/07 15:44:32;;;;;;;5.10;2.70;;;;;;;;;;4979855;28;20022;-90
2021/11/07 15:47:01;;;;;;;5.05;2.50;;;;;;;;;;4979860;28;20029;-89
2021/11/07 15:49:27;;;;;;;4.45;2.53;;;;;;;;;;4979327;28;20026;-88
2021/11/07 15:52:04;;;;;;;5.50;2.90;;;;;;;;;;4978742;28;20022;-88
2021/11/07 15:54:32;;;;;;;4.35;2.20;;;;;;;;;;4996370;28;20245;-89
2021/11/07 16:02:59;;;;;;;7.53;3.67;;;;;;;;;;4998016;28;20369;-90
2021/11/07 16:05:06;;;;;;;5.28;2.58;;;;;;;;;;4991253;28;20038;-89
2021/11/07 16:07:38;;;;;;;5.03;2.45;;;;;;;;;;4982711;28;20028;-90
2021/11/07 16:10:31;;;;;;;4.50;2.13;;;;;;;;;;4982112;28;20809;-90
2021/11/07 16:12:59;;;;;;;5.28;2.30;;;;;;;;;;4997660;28;20030;-90
2021/11/07 16:15:34;;;;;;;4.35;1.70;;;;;;;;;;4980584;28;20030;-90
2021/11/07 16:18:00;;;;;;;4.05;1.90;;;;;;;;;;4991001;28;20026;-90
2021/11/07 16:20:28;;;;;;;4.60;2.10;;;;;;;;;;5000436;28;20031;-90
2021/11/07 16:22:58;;;;;;;5.70;2.40;;;;;;;;;;5002218;28;20102;-90
2021/11/07 16:25:26;;;;;;;5.07;3.20;;;;;;;;;;5001798;28;20026;-90
2021/11/07 16:27:57;;;;;;;5.43;2.53;;;;;;;;;;4993589;28;20050;-90
2021/11/07 16:30:24;;;;;;;5.60;2.42;;;;;;;;;;4960212;28;20031;-90
2021/11/07 16:36:03;;;;;;;5.05;2.40;;;;;;;;;;4977629;28;20086;-88
2021/11/07 16:38:38;;;;;;;5.78;2.38;;;;;;;;;;4963018;28;20107;-89
2021/11/07 16:41:10;;;;;;;6.57;3.45;;;;;;;;;;4962374;28;20106;-90
2021/11/07 16:43:37;;;;;;;6.90;2.90;;;;;;;;;;4978710;28;20026;-89
2021/11/07 16:46:07;;;;;;;6.72;3.20;;;;;;;;;;4961226;28;20033;-88
2021/11/07 16:48:36;;;;;;;6.45;2.95;;;;;;;;;;4959972;28;20388;-89
2021/11/07 16:54:38;;;;;;;4.45;2.38;;;;;;;;;;4958532;29;20058;-89
2021/11/07 16:57:04;;;;;;;5.95;2.38;;;;;;;;;;4952076;29;20436;-90
2021/11/07 16:59:37;;;;;;;4.75;2.47;;;;;;;;;;4961323;28;20057;-89
2021/11/07 17:02:31;;;;;;;5.10;2.45;;;;;;;;;;4973693;28;20026;-88
2021/11/07 17:04:56;;;;;;;5.05;2.45;;;;;;;;;;4980567;28;20413;-89
2021/11/07 17:10:03;;;;;;;4.55;2.15;;;;;;;;;;4978992;28;20359;-88
2021/11/07 17:12:32;;;;;;;4.88;2.13;;;;;;;;;;4976260;28;20046;-88
2021/11/07 17:15:03;;;;;;;4.20;2.03;;;;;;;;;;4960473;28;20027;-90
2021/11/07 17:28:30;;;;;;;4.60;2.10;;;;;;;;;;4965613;28;20043;-88
2021/11/07 17:31:07;;;;;;;4.88;2.15;;;;;;;;;;4996626;28;20261;-88
2021/11/07 17:34:38;;;;;;;4.35;2.30;;;;;;;;;;4977968;28;20025;-90
2021/11/07 17:36:36;;;;;;;4.65;2.15;;;;;;;;;;4968725;28;20034;-89
2021/11/07 17:55:21;;;;;;;4.85;2.17;;;;;;;;;;4975160;28;20461;-89
2021/11/07 17:57:48;;;;;;;5.00;2.17;;;;;;;;;;4958082;28;20473;-90
2021/11/07 18:00:18;;;;;;;5.32;2.60;;;;;;;;;;4958103;28;20118;-90
2021/11/07 18:02:47;;;;;;;4.25;1.90;;;;;;;;;;4974459;28;20026;-89
2021/11/07 18:05:18;;;;;;;5.40;2.65;;;;;;;;;;4956693;28;20431;-90
2021/11/07 18:07:58;;;;;;;4.38;2.10;;;;;;;;;;4957212;28;20499;-89
2021/11/07 18:10:25;;;;;;;4.53;2.30;;;;;;;;;;4970477;28;20045;-90
2021/11/07 18:12:54;;;;;;;5.38;2.65;;;;;;;;;;4975646;28;20023;-91
2021/11/07 18:15:21;;;;;;;4.78;2.40;;;;;;;;;;4978017;28;20026;-90
2021/11/07 18:17:48;;;;;;;5.03;2.42;;;;;;;;;;4979828;28;20117;-90
2021/11/07 18:20:15;;;;;;;4.38;2.08;;;;;;;;;;4994473;28;20027;-90
2021/11/07 18:22:47;;;;;;;4.05;2.25;;;;;;;;;;4994267;28;20092;-89
2021/11/07 18:25:18;;;;;;;7.85;2.50;;;;;;;;;;4990681;28;20390;-89
2021/11/07 18:27:44;;;;;;;5.20;2.40;;;;;;;;;;4981543;28;20023;-90
2021/11/07 18:32:36;;;;;;;4.95;2.15;;;;;;;;;;4995580;28;20038;-89
2021/11/07 18:35:02;;;;;;;5.82;2.55;;;;;;;;;;4980971;28;20507;-90
2021/11/07 18:37:28;;;;;;;5.15;2.45;;;;;;;;;;4980287;28;20476;-90
2021/11/07 18:39:55;;;;;;;5.13;2.88;;;;;;;;;;4981845;28;20033;-90
2021/11/07 18:42:22;;;;;;;10.32;3.88;;;;;;;;;;4968340;28;20078;-90
2021/11/07 18:44:49;;;;;;;7.05;3.05;;;;;;;;;;4961992;28;20026;-89
2021/11/07 18:47:15;;;;;;;8.32;3.40;;;;;;;;;;4962499;28;20027;-90
2021/11/07 18:49:46;;;;;;;5.35;2.78;;;;;;;;;;4962012;28;20026;-90
2021/11/07 18:52:13;;;;;;;7.00;3.35;;;;;;;;;;4960678;28;20030;-89
2021/11/07 18:54:41;;;;;;;6.07;3.10;;;;;;;;;;4964156;28;20093;-90
2021/11/07 18:57:14;;;;;;;6.38;2.78;;;;;;;;;;4980638;28;20495;-88
2021/11/07 18:59:40;;;;;;;11.57;5.28;;;;;;;;;;4980166;28;20114;-88
2021/11/07 19:02:07;;;;;;;7.78;4.07;;;;;;;;;;4980126;28;20447;-88
2021/11/07 19:04:33;;;;;;;9.15;4.00;;;;;;;;;;4980578;28;20030;-88
2021/11/07 19:06:59;;;;;;;4.80;2.70;;;;;;;;;;4980353;28;20033;-89
2021/11/07 19:09:25;;;;;;;5.65;3.28;;;;;;;;;;4980505;28;20029;-88
2021/11/07 19:11:51;;;;;;;6.20;3.35;;;;;;;;;;4977331;28;20069;-88
2021/11/07 19:14:17;;;;;;;6.55;4.00;;;;;;;;;;4980622;28;20034;-89
2021/11/07 19:16:43;;;;;;;7.60;4.32;;;;;;;;;;4980838;28;20035;-89
2021/11/07 19:19:09;;;;;;;7.35;4.22;;;;;;;;;;4967147;28;20031;-88
2021/11/07 19:21:35;;;;;;;6.40;4.05;;;;;;;;;;4962023;28;20511;-87
2021/11/07 19:24:02;;;;;;;8.90;4.85;;;;;;;;;;4976261;28;20035;-90
2021/11/07 19:26:28;;;;;;;6.32;3.42;;;;;;;;;;4979313;28;20166;-89
2021/11/07 19:28:55;;;;;;;7.03;4.22;;;;;;;;;;4979480;28;20022;-90
2021/11/07 19:31:24;;;;;;;6.95;4.15;;;;;;;;;;4980235;28;20088;-91
2021/11/07 19:33:50;;;;;;;7.15;4.53;;;;;;;;;;4979922;28;20105;-90
2021/11/07 19:36:16;;;;;;;7.25;4.75;;;;;;;;;;4979266;28;20392;-90
2021/11/07 19:38:44;;;;;;;7.22;3.85;;;;;;;;;;4978123;28;20080;-90
2021/11/07 19:41:13;;;;;;;9.05;4.80;;;;;;;;;;4979149;28;20037;-91
2021/11/07 19:43:41;;;;;;;9.85;5.63;;;;;;;;;;4969998;28;20038;-91
2021/11/07 19:46:11;;;;;;;8.57;4.93;;;;;;;;;;4959731;28;20078;-91
2021/11/07 19:51:32;;;;;;;7.20;4.47;;;;;;;;;;4981749;28;20126;-91
2021/11/07 19:53:59;;;;;;;9.05;4.75;;;;;;;;;;4965858;28;20086;-90
2021/11/07 19:56:25;;;;;;;9.25;5.72;;;;;;;;;;4979005;28;20049;-91
2021/11/07 19:58:51;;;;;;;8.32;4.40;;;;;;;;;;4979813;28;20026;-91
2021/11/07 20:04:14;;;;;;;7.45;4.63;;;;;;;;;;4996117;28;20053;-91
2021/11/07 20:11:45;;;;;;;8.60;5.53;;;;;;;;;;4987677;28;20034;-90
2021/11/07 20:14:14;;;;;;;8.82;4.93;;;;;;;;;;4978456;28;20476;-91
2021/11/07 20:16:41;;;;;;;7.15;5.15;;;;;;;;;;4979486;28;20161;-91
2021/11/07 20:19:08;;;;;;;10.43;5.40;;;;;;;;;;4979287;28;20030;-91
2021/11/07 20:21:34;;;;;;;14.05;8.50;;;;;;;;;;4996725;28;20019;-90
2021/11/07 20:24:00;;;;;;;7.68;4.70;;;;;;;;;;4979303;28;20029;-90
2021/11/07 20:26:27;;;;;;;9.77;6.18;;;;;;;;;;4961252;28;20031;-91
2021/11/07 20:28:54;;;;;;;10.20;6.18;;;;;;;;;;4959539;28;20033;-91
2021/11/07 20:31:20;;;;;;;8.82;5.32;;;;;;;;;;4960998;28;20047;-91
2021/11/07 20:33:47;;;;;;;11.02;5.75;;;;;;;;;;4979298;28;20110;-92
2021/11/07 20:36:21;;;;;;;9.85;6.78;;;;;;;;;;4978174;28;20037;-92
2021/11/07 20:38:49;;;;;;;8.93;6.15;;;;;;;;;;4978441;28;20049;-91
2021/11/07 20:41:15;;;;;;;16.27;9.45;;;;;;;;;;4978601;28;20435;-90
2021/11/07 20:43:45;;;;;;;11.65;7.22;;;;;;;;;;4978335;28;20027;-91
2021/11/07 20:48:54;;;;;;;11.50;6.28;;;;;;;;;;4995799;28;20035;-91
2021/11/07 20:53:56;;;;;;;11.70;7.00;;;;;;;;;;4996913;28;20035;-90
2021/11/07 20:56:53;;;;;;;9.32;5.55;;;;;;;;;;4978430;28;20480;-89
2021/11/07 20:59:20;;;;;;;13.20;7.93;;;;;;;;;;4996431;28;20142;-90
2021/11/07 21:01:53;;;;;;;12.18;6.95;;;;;;;;;;4970970;28;20026;-91
2021/11/07 21:06:51;;;;;;;18.55;9.77;;;;;;;;;;4997648;28;20041;-90
2021/11/07 21:14:49;;;;;;;9.68;5.65;;;;;;;;;;4958487;28;20037;-92
2021/11/07 21:27:57;;;;;;;9.70;5.82;;;;;;;;;;5000921;28;20089;-91
2021/11/07 21:30:29;;;;;;;9.18;5.22;;;;;;;;;;4982715;28;20033;-91
2021/11/07 21:32:57;;;;;;;9.07;5.72;;;;;;;;;;4982802;28;20499;-92
2021/11/07 21:35:27;;;;;;;9.18;6.05;;;;;;;;;;4982014;28;20030;-89
2021/11/07 21:38:13;;;;;;;9.40;5.70;;;;;;;;;;4980522;28;20037;-88
2021/11/07 21:43:28;;;;;;;10.00;6.07;;;;;;;;;;4998199;28;20042;-89
2021/11/07 21:46:00;;;;;;;;;;;;;;;;;;4980022;28;20050;-89
2021/11/07 21:48:26;;;;;;;9.10;5.60;;;;;;;;;;4977929;28;20004;-90
2021/11/07 21:50:53;;;;;;;9.98;6.22;;;;;;;;;;4961025;28;20097;-89
2021/11/07 21:53:19;;;;;;;8.48;5.45;;;;;;;;;;4960973;28;20023;-88
2021/11/07 21:55:45;;;;;;;8.60;5.97;;;;;;;;;;4962082;28;20070;-89
2021/11/07 21:58:11;;;;;;;8.38;5.60;;;;;;;;;;4965931;28;20117;-89
2021/11/07 22:00:39;;;;;;;9.35;6.00;;;;;;;;;;4979032;28;20031;-90
2021/11/07 22:03:05;;;;;;;8.13;5.70;;;;;;;;;;4993434;28;20078;-89
2021/11/07 22:05:31;;;;;;;8.48;5.78;;;;;;;;;;4978197;28;20408;-90
2021/11/07 22:07:57;;;;;;;10.52;6.72;;;;;;;;;;4969739;28;20050;-89
2021/11/07 22:10:24;;;;;;;11.05;6.78;;;;;;;;;;4987162;28;20091;-88
2021/11/07 22:12:50;;;;;;;10.20;6.90;;;;;;;;;;4965844;28;20035;-90
2021/11/07 22:15:36;;;;;;;9.05;6.00;;;;;;;;;;4963805;28;20026;-89
2021/11/07 22:18:15;;;;;;;11.57;7.40;;;;;;;;;;4980036;28;20471;-87
2021/11/07 22:20:45;;;;;;;10.20;6.45;;;;;;;;;;4996993;28;20064;-88
2021/11/07 22:25:52;;;;;;;10.43;6.57;;;;;;;;;;4984083;28;20034;-89
2021/11/07 22:28:22;;;;;;;9.18;5.57;;;;;;;;;;4979415;28;20019;-88
2021/11/07 22:30:48;;;;;;;8.18;5.70;;;;;;;;;;4980536;28;20129;-90
2021/11/07 22:33:16;;;;;;;9.85;5.85;;;;;;;;;;4980047;28;20046;-88
2021/11/07 22:35:45;;;;;;;10.07;6.03;;;;;;;;;;4974136;28;20031;-89
2021/11/07 22:38:11;;;;;;;8.85;5.90;;;;;;;;;;4960465;28;20031;-91
2021/11/07 22:40:37;;;;;;;9.32;6.22;;;;;;;;;;4976785;28;20470;-92
2021/11/07 22:43:07;;;;;;;11.23;6.50;;;;;;;;;;4981335;28;20038;-92
2021/11/07 22:45:34;;;;;;;9.35;5.57;;;;;;;;;;4979623;28;20034;-92
2021/11/07 22:48:07;;;;;;;9.90;5.47;;;;;;;;;;4976824;28;20030;-92
2021/11/07 22:58:48;;;;;;;8.98;5.63;;;;;;;;;;4997275;28;20073;-92
2021/11/07 23:06:48;;;;;;;8.52;6.25;;;;;;;;;;4937353;29;20042;-91
2021/11/07 23:11:50;;;;;;;9.95;6.05;;;;;;;;;;4938293;29;20027;-90
2021/11/07 23:14:22;;;;;;;9.88;5.82;;;;;;;;;;4932593;29;20032;-88
2021/11/07 23:16:59;;;;;;;8.93;5.95;;;;;;;;;;4916868;29;20441;-88
2021/11/07 23:19:37;;;;;;;9.63;6.18;;;;;;;;;;4923683;29;20012;-87
2021/11/07 23:22:09;;;;;;;10.32;6.10;;;;;;;;;;4935960;29;20026;-87
2021/11/07 23:24:38;;;;;;;9.70;5.95;;;;;;;;;;4933865;28;20402;-87
2021/11/07 23:27:07;;;;;;;9.52;5.95;;;;;;;;;;4939327;29;20111;-87
2021/11/07 23:29:33;;;;;;;8.88;6.10;;;;;;;;;;4928486;29;20035;-87
2021/11/07 23:32:00;;;;;;;8.88;5.68;;;;;;;;;;4923418;29;20086;-87
2021/11/07 23:34:26;;;;;;;7.97;5.43;;;;;;;;;;4922544;29;20030;-86
2021/11/07 23:36:55;;;;;;;8.63;5.30;;;;;;;;;;4921568;29;20428;-87
2021/11/07 23:39:22;;;;;;;8.38;5.65;;;;;;;;;;4940886;28;20121;-87
2021/11/07 23:41:49;;;;;;;9.35;6.32;;;;;;;;;;4980325;28;20027;-86
2021/11/07 23:44:18;;;;;;;9.77;5.80;;;;;;;;;;4974408;28;20023;-87
2021/11/07 23:46:45;;;;;;;9.35;6.25;;;;;;;;;;4978220;28;20031;-87
2021/11/07 23:49:13;;;;;;;10.27;6.50;;;;;;;;;;4978900;28;20084;-86
2021/11/07 23:54:16;;;;;;;10.97;6.50;;;;;;;;;;4981706;28;20044;-91
2021/11/07 23:56:50;;;;;;;11.27;6.47;;;;;;;;;;4993844;28;20504;-91
2021/11/07 23:59:17;;;;;;;9.82;6.82;;;;;;;;;;4979234;28;20034;-91
